createdAt,value
2018-11-22T00:01:50.489Z,23.13
2018-11-22T00:04:21.284Z,24.07
2018-11-22T00:06:51.913Z,23.90
2018-11-22T00:09:22.512Z,24.77
2018-11-22T00:11:53.107Z,23.20
2018-11-22T00:14:28.122Z,24.43
2018-11-22T00:16:59.011Z,23.87
2018-11-22T00:19:29.701Z,23.80
2018-11-22T00:22:00.433Z,24.70
2018-11-22T00:24:32.081Z,25.27
2018-11-22T00:27:02.687Z,23.73
2018-11-22T00:29:34.522Z,23.43
2018-11-22T00:32:06.095Z,24.23
2018-11-22T00:34:37.813Z,23.97
2018-11-22T00:37:09.506Z,26.20
2018-11-22T00:39:40.139Z,23.97
2018-11-22T00:42:12.145Z,23.70
2018-11-22T00:44:42.795Z,22.10
2018-11-22T00:47:14.501Z,23.90
2018-11-22T00:49:46.007Z,23.93
2018-11-22T00:52:16.781Z,24.23
2018-11-22T00:54:47.341Z,24.20
2018-11-22T00:57:18.437Z,22.27
2018-11-22T00:59:48.992Z,24.23
2018-11-22T01:02:19.598Z,22.10
2018-11-22T01:04:50.568Z,22.87
2018-11-22T01:07:21.212Z,22.37
2018-11-22T01:09:52.859Z,22.57
2018-11-22T01:12:23.434Z,21.33
2018-11-22T01:14:58.503Z,21.57
2018-11-22T01:17:29.400Z,22.20
2018-11-22T01:20:01.068Z,22.07
2018-11-22T01:22:31.644Z,22.50
2018-11-22T01:25:03.682Z,23.00
2018-11-22T01:27:34.255Z,23.63
2018-11-22T01:30:05.622Z,21.77
2018-11-22T01:32:37.705Z,23.07
2018-11-22T01:35:09.300Z,22.50
2018-11-22T01:37:41.738Z,22.83
2018-11-22T01:40:16.938Z,23.07
2018-11-22T01:42:47.947Z,22.33
2018-11-22T01:45:21.331Z,22.40
2018-11-22T01:47:51.907Z,22.53
2018-11-22T01:50:22.882Z,22.13
2018-11-22T01:52:53.794Z,22.23
2018-11-22T01:55:25.146Z,22.30
2018-11-22T01:57:56.218Z,21.00
2018-11-22T02:00:27.359Z,21.57
2018-11-22T02:02:58.185Z,22.23
2018-11-22T02:05:28.753Z,23.23
2018-11-22T02:07:59.476Z,21.97
2018-11-22T02:10:31.210Z,21.33
2018-11-22T02:13:01.843Z,22.37
2018-11-22T02:15:32.637Z,21.27
2018-11-22T02:18:03.633Z,20.47
2018-11-22T02:20:34.255Z,20.97
2018-11-22T02:23:04.956Z,21.33
2018-11-22T02:25:36.659Z,21.87
2018-11-22T02:28:07.921Z,22.27
2018-11-22T02:30:38.479Z,21.60
2018-11-22T02:33:08.470Z,22.23
2018-11-22T02:35:39.123Z,20.53
2018-11-22T02:38:10.778Z,21.33
2018-11-22T02:40:41.459Z,21.63
2018-11-22T02:43:13.190Z,22.83
2018-11-22T02:45:44.137Z,22.10
2018-11-22T02:48:14.790Z,22.17
2018-11-22T02:50:45.364Z,22.77
2018-11-22T02:53:16.436Z,22.83
2018-11-22T02:55:47.197Z,22.80
2018-11-22T02:58:17.792Z,23.80
2018-11-22T03:00:48.407Z,24.07
2018-11-22T03:03:19.001Z,22.23
2018-11-22T03:05:49.677Z,23.37
2018-11-22T03:08:20.297Z,23.23
2018-11-22T03:10:50.976Z,22.93
2018-11-22T03:13:22.112Z,22.87
2018-11-22T03:15:52.782Z,23.30
2018-11-22T03:18:24.734Z,22.50
2018-11-22T03:20:55.358Z,23.40
2018-11-22T03:23:26.017Z,23.23
2018-11-22T03:25:56.656Z,23.33
2018-11-22T03:28:27.308Z,22.90
2018-11-22T03:30:57.951Z,22.70
2018-11-22T03:33:28.666Z,22.70
2018-11-22T03:36:00.021Z,23.60
2018-11-22T03:38:30.976Z,23.87
2018-11-22T03:41:02.076Z,24.13
2018-11-22T03:43:32.644Z,22.90
2018-11-22T03:46:03.286Z,24.13
2018-11-22T03:48:34.379Z,22.80
2018-11-22T03:51:06.832Z,22.77
2018-11-22T03:53:37.576Z,22.77
2018-11-22T03:56:08.248Z,22.30
2018-11-22T03:58:38.849Z,23.80
2018-11-22T04:01:09.409Z,22.63
2018-11-22T04:03:40.007Z,22.40
2018-11-22T04:06:13.994Z,22.70
2018-11-22T04:08:44.662Z,21.93
2018-11-22T04:11:15.247Z,23.10
2018-11-22T04:13:46.312Z,22.17
2018-11-22T04:16:17.431Z,21.37
2018-11-22T04:18:48.203Z,21.20
2018-11-22T04:21:18.797Z,22.43
2018-11-22T04:23:49.369Z,22.87
2018-11-22T04:26:24.047Z,23.43
2018-11-22T04:28:50.746Z,22.87
2018-11-22T04:31:21.415Z,24.20
2018-11-22T04:33:53.170Z,24.17
2018-11-22T04:36:23.865Z,23.00
2018-11-22T04:38:54.669Z,23.87
2018-11-22T04:41:25.478Z,23.60
2018-11-22T04:43:57.336Z,22.73
2018-11-22T04:46:28.241Z,22.27
2018-11-22T04:49:00.291Z,23.40
2018-11-22T04:51:31.655Z,21.87
2018-11-22T04:54:02.455Z,22.97
2018-11-22T04:56:33.085Z,22.97
2018-11-22T04:59:03.760Z,24.13
2018-11-22T05:01:34.311Z,22.67
2018-11-22T05:04:06.056Z,23.23
2018-11-22T05:06:36.636Z,22.70
2018-11-22T05:09:09.997Z,23.07
2018-11-22T05:11:40.595Z,21.10
2018-11-22T05:14:11.239Z,23.40
2018-11-22T05:16:42.006Z,22.50
2018-11-22T05:19:12.604Z,23.17
2018-11-22T05:21:43.232Z,23.13
2018-11-22T05:24:14.189Z,23.80
2018-11-22T05:26:45.025Z,22.13
2018-11-22T05:29:15.698Z,22.50
2018-11-22T05:31:46.478Z,23.27
2018-11-22T05:34:17.109Z,23.37
2018-11-22T05:36:47.965Z,22.70
2018-11-22T05:39:19.038Z,22.87
2018-11-22T05:41:50.229Z,24.67
2018-11-22T05:44:21.221Z,22.57
2018-11-22T05:46:53.940Z,22.97
2018-11-22T05:49:24.564Z,22.53
2018-11-22T05:51:56.940Z,22.60
2018-11-22T05:54:28.613Z,23.43
2018-11-22T05:56:59.573Z,22.53
2018-11-22T05:59:30.275Z,23.20
2018-11-22T06:02:01.188Z,24.47
2018-11-22T06:04:32.852Z,23.20
2018-11-22T06:07:03.489Z,23.30
2018-11-22T06:09:34.132Z,22.47
2018-11-22T06:12:05.023Z,22.37
2018-11-22T06:14:35.658Z,22.00
2018-11-22T06:17:07.362Z,21.53
2018-11-22T06:19:38.916Z,25.10
2018-11-22T06:22:09.660Z,24.17
2018-11-22T06:24:40.277Z,24.50
2018-11-22T06:27:10.875Z,23.27
2018-11-22T06:29:41.571Z,23.87
2018-11-22T06:32:12.129Z,23.43
2018-11-22T06:34:43.116Z,22.53
2018-11-22T06:37:14.046Z,23.33
2018-11-22T06:39:46.497Z,22.60
2018-11-22T06:42:17.149Z,23.93
2018-11-22T06:44:47.848Z,24.47
2018-11-22T06:47:18.763Z,22.70
2018-11-22T06:49:49.364Z,23.63
2018-11-22T06:52:21.006Z,25.50
2018-11-22T06:54:51.712Z,26.10
2018-11-22T06:57:22.420Z,24.67
2018-11-22T06:59:53.083Z,23.93
2018-11-22T07:02:26.144Z,22.90
2018-11-22T07:04:56.738Z,23.50
2018-11-22T07:07:27.972Z,24.27
2018-11-22T07:09:58.569Z,22.93
2018-11-22T07:12:29.286Z,24.00
2018-11-22T07:15:00.329Z,23.73
2018-11-22T07:17:31.099Z,23.87
2018-11-22T07:20:01.823Z,25.17
2018-11-22T07:22:32.438Z,24.70
2018-11-22T07:25:03.445Z,24.00
2018-11-22T07:27:38.264Z,23.97
2018-11-22T07:30:04.916Z,24.30
2018-11-22T07:32:35.635Z,24.07
2018-11-22T07:35:08.117Z,23.80
2018-11-22T07:37:40.369Z,24.87
2018-11-22T07:40:13.697Z,23.23
2018-11-22T07:42:50.567Z,23.33
2018-11-22T07:45:17.653Z,24.23
2018-11-22T07:47:48.607Z,24.13
2018-11-22T07:50:21.143Z,24.20
2018-11-22T07:52:52.373Z,23.53
2018-11-22T07:55:23.441Z,22.60
2018-11-22T07:57:53.996Z,25.40
2018-11-22T08:00:37.661Z,22.73
2018-11-22T08:03:08.865Z,23.80
2018-11-22T08:05:41.285Z,24.67
2018-11-22T08:08:12.505Z,23.40
2018-11-22T08:10:44.265Z,24.17
2018-11-22T08:13:16.263Z,23.43
2018-11-22T08:15:46.997Z,24.27
2018-11-22T08:18:17.599Z,24.30
2018-11-22T08:20:48.350Z,24.13
2018-11-22T08:23:18.980Z,23.70
2018-11-22T08:25:50.623Z,24.30
2018-11-22T08:28:21.287Z,24.20
2018-11-22T08:30:52.094Z,23.80
2018-11-22T08:33:22.702Z,24.73
2018-11-22T08:35:54.047Z,22.00
2018-11-22T08:38:24.831Z,23.43
2018-11-22T08:40:55.544Z,24.57
2018-11-22T08:43:26.173Z,24.37
2018-11-22T08:45:56.869Z,23.13
2018-11-22T08:48:28.604Z,22.63
2018-11-22T08:50:59.164Z,22.97
2018-11-22T08:53:33.310Z,23.07
2018-11-22T08:56:00.551Z,24.27
2018-11-22T08:58:32.257Z,25.43
2018-11-22T09:01:02.804Z,24.73
2018-11-22T09:03:33.503Z,24.00
2018-11-22T09:06:04.374Z,26.20
2018-11-22T09:08:35.023Z,26.40
2018-11-22T09:11:05.803Z,25.27
2018-11-22T09:13:36.455Z,26.93
2018-11-22T09:16:07.521Z,24.93
2018-11-22T09:18:38.273Z,25.17
2018-11-22T09:21:09.071Z,24.67
2018-11-22T09:23:39.922Z,25.67
2018-11-22T09:26:10.503Z,25.47
2018-11-22T09:28:41.289Z,26.83
2018-11-22T09:31:11.868Z,24.17
2018-11-22T09:36:16.236Z,25.23
2018-11-22T09:38:46.939Z,26.37
2018-11-22T09:41:18.750Z,27.10
2018-11-22T09:43:50.022Z,27.23
2018-11-22T09:46:21.250Z,26.47
2018-11-22T09:48:51.935Z,26.43
2018-11-22T09:51:22.924Z,26.17
2018-11-22T09:53:53.612Z,26.30
2018-11-22T09:56:24.319Z,26.70
2018-11-22T09:58:55.106Z,26.20
2018-11-22T10:01:25.852Z,26.90
2018-11-22T10:03:56.583Z,26.30
2018-11-22T10:06:27.214Z,26.10
2018-11-22T10:08:57.951Z,26.33
2018-11-22T10:11:28.556Z,25.67
2018-11-22T10:13:59.273Z,26.83
2018-11-22T10:16:31.129Z,24.77
2018-11-22T10:19:01.921Z,27.23
2018-11-22T10:21:34.415Z,26.83
2018-11-22T10:24:05.482Z,25.03
2018-11-22T10:26:38.742Z,26.33
2018-11-22T10:29:10.599Z,24.57
2018-11-22T10:31:41.378Z,24.33
2018-11-22T10:34:12.236Z,24.63
2018-11-22T10:36:43.205Z,24.30
2018-11-22T10:39:14.101Z,25.50
2018-11-22T10:41:45.797Z,25.47
2018-11-22T10:44:17.593Z,23.50
2018-11-22T10:46:48.203Z,24.03
2018-11-22T10:49:19.332Z,24.37
2018-11-22T10:51:49.964Z,24.27
2018-11-22T10:54:20.733Z,24.40
2018-11-22T10:56:51.383Z,24.37
2018-11-22T10:59:22.183Z,25.37
2018-11-22T12:17:39.422Z,27.90
2018-11-22T12:20:10.162Z,27.30
2018-11-22T12:22:40.483Z,26.60
2018-11-22T12:25:13.788Z,27.50
2018-11-22T12:27:46.480Z,26.73
2018-11-22T12:30:27.109Z,26.43
2018-11-22T12:33:05.325Z,26.50
2018-11-22T12:35:46.603Z,27.13
2018-11-22T12:38:25.148Z,27.37
2018-11-22T12:40:57.531Z,28.20
2018-11-22T12:43:26.911Z,26.07
2018-11-22T12:45:56.097Z,27.73
2018-11-22T12:48:29.138Z,28.87
2018-11-22T12:50:58.393Z,28.83
2018-11-22T12:53:27.989Z,26.97
2018-11-22T12:55:57.299Z,28.20
2018-11-22T12:58:27.280Z,27.77
2018-11-22T13:00:57.356Z,29.10
2018-11-22T13:03:26.513Z,28.90
2018-11-22T13:05:55.710Z,27.33
2018-11-22T13:08:25.191Z,28.00
2018-11-22T13:10:55.464Z,27.50
2018-11-22T13:13:24.682Z,28.70
2018-11-22T13:15:53.797Z,28.23
2018-11-22T13:18:23.020Z,27.63
2018-11-22T13:20:52.180Z,26.80
2018-11-22T13:23:21.340Z,26.33
2018-11-22T13:25:52.090Z,27.97
2018-11-22T13:28:21.210Z,28.73
2018-11-22T13:30:50.340Z,28.63
2018-11-22T13:33:19.446Z,28.63
2018-11-22T13:35:49.670Z,26.97
2018-11-22T13:38:18.773Z,28.00
2018-11-22T13:40:47.949Z,28.03
2018-11-22T13:43:17.039Z,27.00
2018-11-22T13:45:46.140Z,27.13
2018-11-22T13:48:15.229Z,27.57
2018-11-22T13:50:44.446Z,26.10
2018-11-22T13:53:13.569Z,27.83
2018-11-22T13:55:43.829Z,28.23
2018-11-22T13:58:13.036Z,28.37
2018-11-22T14:00:43.254Z,28.07
2018-11-22T14:03:12.408Z,27.37
2018-11-22T14:05:41.580Z,28.20
2018-11-22T14:08:10.791Z,26.43
2018-11-22T14:10:39.960Z,29.50
2018-11-22T14:13:09.047Z,29.53
2018-11-22T14:15:39.283Z,28.40
2018-11-22T14:18:08.411Z,28.07
2018-11-22T14:20:38.649Z,26.63
2018-11-22T14:23:07.734Z,28.40
2018-11-22T14:27:08.289Z,28.93
2018-11-22T14:29:37.553Z,28.40
2018-11-22T14:32:06.679Z,27.90
2018-11-22T14:34:35.761Z,27.63
2018-11-22T14:37:05.377Z,27.60
2018-11-22T14:39:34.456Z,27.67
2018-11-22T14:42:03.733Z,28.70
2018-11-22T14:44:32.964Z,27.50
2018-11-22T14:47:02.105Z,27.30
2018-11-22T14:49:31.253Z,27.93
2018-11-22T14:52:00.807Z,27.87
2018-11-22T14:54:29.917Z,30.17
2018-11-22T14:56:59.048Z,28.27
2018-11-22T14:59:28.168Z,30.07
2018-11-22T15:01:58.260Z,29.47
2018-11-22T15:04:27.469Z,29.57
2018-11-22T15:06:56.580Z,29.50
2018-11-22T15:09:27.769Z,29.57
2018-11-22T15:11:57.003Z,29.57
2018-11-22T15:14:27.389Z,28.87
2018-11-22T15:16:56.557Z,29.57
2018-11-22T15:19:26.875Z,27.83
2018-11-22T15:21:56.086Z,28.07
2018-11-22T15:24:25.266Z,28.70
2018-11-22T15:26:54.372Z,28.13
2018-11-22T15:29:23.603Z,30.00
2018-11-22T15:31:53.004Z,28.40
2018-11-22T15:34:22.970Z,28.40
2018-11-22T15:36:52.351Z,28.97
2018-11-22T15:39:21.674Z,29.03
2018-11-22T15:41:51.827Z,28.80
2018-11-22T15:44:21.033Z,28.33
2018-11-22T15:46:50.192Z,28.37
2018-11-22T15:49:19.290Z,29.40
2018-11-22T15:51:48.490Z,35.33
2018-11-22T15:54:18.408Z,35.73
2018-11-22T15:56:47.576Z,34.50
2018-11-22T15:59:16.949Z,32.50
2018-11-22T16:01:46.054Z,28.67
2018-11-22T16:04:15.270Z,29.07
2018-11-22T16:06:45.070Z,26.97
2018-11-22T16:09:14.225Z,28.27
2018-11-22T16:11:43.454Z,28.37
2018-11-22T16:14:12.664Z,29.27
2018-11-22T16:16:41.992Z,28.97
2018-11-22T16:19:11.748Z,27.93
2018-11-22T16:21:43.018Z,27.47
2018-11-22T16:24:13.283Z,28.27
2018-11-22T16:26:43.523Z,27.53
2018-11-22T16:29:12.687Z,27.40
2018-11-22T16:31:42.917Z,28.27
2018-11-22T16:34:12.334Z,28.63
2018-11-22T16:36:41.512Z,27.27
2018-11-22T16:39:11.202Z,27.50
2018-11-22T16:41:40.364Z,28.27
2018-11-22T16:44:09.496Z,33.37
2018-11-22T16:46:38.663Z,30.93
2018-11-22T16:49:08.600Z,30.00
2018-11-22T16:51:39.800Z,30.90
2018-11-22T16:54:08.897Z,31.73
2018-11-22T16:56:40.062Z,29.57
2018-11-22T16:59:09.224Z,28.60
2018-11-22T17:01:38.400Z,29.13
2018-11-22T17:04:07.479Z,28.00
2018-11-22T17:06:36.788Z,29.70
2018-11-22T17:09:08.770Z,29.13
2018-11-22T17:11:39.232Z,30.20
2018-11-22T17:14:08.367Z,30.13
2018-11-22T17:16:39.514Z,29.40
2018-11-22T17:19:08.598Z,29.53
2018-11-22T17:21:37.895Z,29.30
2018-11-22T17:24:07.239Z,26.83
2018-11-22T17:26:36.438Z,29.13
2018-11-22T17:29:05.596Z,28.93
2018-11-22T17:31:35.818Z,28.10
2018-11-22T17:34:04.990Z,28.63
2018-11-22T17:36:35.218Z,28.40
2018-11-22T17:39:07.178Z,27.33
2018-11-22T17:41:37.092Z,28.67
2018-11-22T17:44:06.478Z,29.73
2018-11-22T17:46:37.339Z,29.07
2018-11-22T17:49:07.182Z,31.37
2018-11-22T17:51:36.504Z,29.83
2018-11-22T17:54:06.414Z,28.93
2018-11-22T17:56:35.617Z,30.40
2018-11-22T17:59:04.792Z,28.20
2018-11-22T18:01:34.059Z,30.00
2018-11-22T18:04:04.258Z,28.93
2018-11-22T18:06:33.530Z,29.80
2018-11-22T18:09:02.736Z,30.40
2018-11-22T18:11:31.963Z,30.40
2018-11-22T18:14:01.116Z,30.87
2018-11-22T18:16:30.237Z,32.47
2018-11-22T18:19:00.453Z,31.33
2018-11-22T18:21:29.554Z,31.23
2018-11-22T18:23:58.786Z,31.60
2018-11-22T18:26:28.909Z,33.83
2018-11-22T18:28:58.878Z,31.90
2018-11-22T18:31:28.014Z,31.20
2018-11-22T18:33:57.134Z,36.90
2018-11-22T18:36:26.316Z,38.83
2018-11-22T18:38:55.400Z,36.00
2018-11-22T18:41:24.544Z,31.83
2018-11-22T18:43:53.686Z,32.57
2018-11-22T18:46:22.950Z,31.77
2018-11-22T18:48:52.646Z,31.77
2018-11-22T18:51:21.958Z,31.20
2018-11-22T18:53:51.203Z,32.53
2018-11-22T18:56:20.362Z,31.40
2018-11-22T18:58:51.457Z,31.53
2018-11-22T19:01:22.276Z,30.10
2018-11-22T19:03:52.595Z,30.83
2018-11-22T19:06:21.718Z,33.87
2018-11-22T19:08:50.926Z,36.87
2018-11-22T19:11:20.091Z,35.00
2018-11-22T19:13:55.161Z,31.87
2018-11-22T19:16:25.044Z,30.63
2018-11-22T19:18:54.202Z,30.03
2018-11-22T19:21:23.561Z,29.23
2018-11-22T19:23:53.821Z,30.33
2018-11-22T19:26:22.967Z,29.17
2018-11-22T19:28:52.163Z,29.87
2018-11-22T19:31:21.454Z,31.13
2018-11-22T19:33:50.948Z,31.27
2018-11-22T19:36:21.339Z,30.73
2018-11-22T19:38:50.456Z,30.13
2018-11-22T19:41:20.659Z,30.80
2018-11-22T19:43:49.753Z,28.87
2018-11-22T19:46:18.978Z,31.00
2018-11-22T19:48:48.573Z,30.90
2018-11-22T19:51:19.732Z,30.97
2018-11-22T19:53:48.876Z,32.47
2018-11-22T19:56:20.274Z,31.07
2018-11-22T19:58:49.493Z,32.43
2018-11-22T20:01:19.835Z,31.60
2018-11-22T20:03:48.988Z,28.70
2018-11-22T20:06:18.179Z,31.27
2018-11-22T20:08:47.536Z,30.93
2018-11-22T20:11:16.643Z,31.97
2018-11-22T20:13:45.926Z,29.93
2018-11-22T20:16:15.032Z,29.80
2018-11-22T20:18:45.216Z,30.13
2018-11-22T20:21:14.411Z,31.07
2018-11-22T20:23:43.641Z,30.37
2018-11-22T20:26:12.949Z,32.00
2018-11-22T20:28:44.195Z,32.53
2018-11-22T20:31:13.371Z,32.23
2018-11-22T20:33:42.508Z,32.73
2018-11-22T20:36:11.643Z,31.60
2018-11-22T20:38:41.801Z,28.63
2018-11-22T20:41:11.094Z,29.83
2018-11-22T20:43:41.260Z,31.10
2018-11-22T20:46:10.561Z,30.13
2018-11-22T20:48:40.848Z,30.60
2018-11-22T20:51:10.073Z,28.60
2018-11-22T20:53:39.331Z,33.23
2018-11-22T20:56:08.414Z,33.53
2018-11-22T20:58:37.591Z,31.80
2018-11-22T21:01:07.044Z,32.30
2018-11-22T21:03:36.177Z,31.10
2018-11-22T21:06:05.863Z,30.07
2018-11-22T21:08:35.168Z,30.53
2018-11-22T21:11:04.553Z,30.17
2018-11-22T21:13:34.778Z,30.17
2018-11-22T21:16:03.932Z,30.30
2018-11-22T21:18:33.085Z,29.47
2018-11-22T21:21:02.190Z,31.20
2018-11-22T21:23:31.391Z,29.53
2018-11-22T21:26:00.521Z,31.17
2018-11-22T21:28:30.832Z,31.33
2018-11-22T21:30:59.931Z,33.13
2018-11-22T21:33:30.200Z,29.93
2018-11-22T21:35:59.336Z,32.83
2018-11-22T21:38:28.632Z,31.57
2018-11-22T21:40:57.855Z,31.70
2018-11-22T21:43:27.003Z,32.90
2018-11-22T21:45:56.132Z,31.83
2018-11-22T21:48:26.347Z,32.07
2018-11-22T21:50:55.621Z,34.47
2018-11-22T21:53:26.811Z,31.63
2018-11-22T21:55:56.594Z,31.23
2018-11-22T21:58:27.737Z,33.63
2018-11-22T22:00:56.876Z,32.10
2018-11-22T22:03:27.051Z,31.83
2018-11-22T22:05:56.255Z,33.73
2018-11-22T22:08:25.439Z,33.43
2018-11-22T22:10:54.524Z,32.27
2018-11-22T22:13:23.963Z,33.10
2018-11-22T22:15:53.076Z,31.20
2018-11-22T22:18:23.314Z,31.37
2018-11-22T22:20:52.794Z,32.57
2018-11-22T22:23:23.036Z,32.43
2018-11-22T22:25:52.198Z,34.03
2018-11-22T22:28:21.524Z,32.23
2018-11-22T22:30:51.295Z,32.67
2018-11-22T22:33:21.476Z,32.33
2018-11-22T22:35:50.652Z,32.30
2018-11-22T22:38:19.748Z,30.93
2018-11-22T22:40:48.999Z,31.33
2018-11-22T22:43:18.368Z,31.23
2018-11-22T22:45:48.810Z,31.87
2018-11-22T22:48:17.950Z,30.67
2018-11-22T22:50:48.176Z,30.50
2018-11-22T22:53:17.526Z,32.33
2018-11-22T22:55:46.766Z,31.40
2018-11-22T22:58:15.832Z,31.90
2018-11-22T23:00:49.056Z,32.37
2018-11-22T23:03:18.199Z,33.73
2018-11-22T23:05:47.302Z,32.07
2018-11-22T23:08:16.575Z,29.33
2018-11-22T23:10:45.730Z,31.80
2018-11-22T23:13:16.182Z,31.43
2018-11-22T23:15:45.287Z,31.17
2018-11-22T23:18:14.521Z,32.27
2018-11-22T23:20:43.633Z,33.57
2018-11-22T23:23:12.879Z,33.03
2018-11-22T23:25:42.031Z,33.37
2018-11-22T23:28:11.254Z,36.93
2018-11-22T23:30:40.491Z,32.07
2018-11-22T23:33:09.975Z,30.87
2018-11-22T23:35:40.185Z,31.07
2018-11-22T23:38:09.287Z,31.10
2018-11-22T23:40:39.610Z,29.70
2018-11-22T23:43:08.695Z,32.93
2018-11-22T23:45:38.479Z,32.30
2018-11-22T23:48:07.621Z,33.23
2018-11-22T23:50:38.899Z,34.00
2018-11-22T23:53:13.775Z,31.20
2018-11-22T23:55:43.046Z,31.87
2018-11-22T23:58:12.187Z,31.33
